sensor_id;sensor_type;location;lat;lon;timestamp;temperature;humidity
39023;DHT22;25908;51.984;5.928;2022-07-23T00:02:05;18.10;90.10
39023;DHT22;25908;51.984;5.928;2022-07-23T00:04:32;18.10;90.20
39023;DHT22;25908;51.984;5.928;2022-07-23T00:06:57;18.10;90.20
39023;DHT22;25908;51.984;5.928;2022-07-23T00:09:23;18.10;90.30
39023;DHT22;25908;51.984;5.928;2022-07-23T00:11:49;18.00;90.40
39023;DHT22;25908;51.984;5.928;2022-07-23T00:14:14;18.00;90.70
39023;DHT22;25908;51.984;5.928;2022-07-23T00:16:40;18.00;90.50
39023;DHT22;25908;51.984;5.928;2022-07-23T00:19:05;18.00;90.60
39023;DHT22;25908;51.984;5.928;2022-07-23T00:21:31;18.00;90.70
39023;DHT22;25908;51.984;5.928;2022-07-23T00:23:56;17.90;90.70
39023;DHT22;25908;51.984;5.928;2022-07-23T00:26:22;17.90;90.70
39023;DHT22;25908;51.984;5.928;2022-07-23T00:28:47;17.90;90.80
39023;DHT22;25908;51.984;5.928;2022-07-23T00:31:13;17.90;90.90
39023;DHT22;25908;51.984;5.928;2022-07-23T00:33:38;17.80;90.90
39023;DHT22;25908;51.984;5.928;2022-07-23T00:36:04;17.80;90.90
39023;DHT22;25908;51.984;5.928;2022-07-23T00:38:30;17.80;91.00
39023;DHT22;25908;51.984;5.928;2022-07-23T00:40:55;17.80;91.10
39023;DHT22;25908;51.984;5.928;2022-07-23T00:43:21;17.80;91.20
39023;DHT22;25908;51.984;5.928;2022-07-23T00:45:48;17.70;91.20
39023;DHT22;25908;51.984;5.928;2022-07-23T00:48:14;17.70;91.20
39023;DHT22;25908;51.984;5.928;2022-07-23T00:50:39;17.70;91.30
39023;DHT22;25908;51.984;5.928;2022-07-23T00:53:05;17.60;91.30
39023;DHT22;25908;51.984;5.928;2022-07-23T00:55:31;17.60;91.40
39023;DHT22;25908;51.984;5.928;2022-07-23T00:57:58;17.60;91.40
39023;DHT22;25908;51.984;5.928;2022-07-23T01:00:24;17.60;91.50
39023;DHT22;25908;51.984;5.928;2022-07-23T01:02:49;17.50;91.50
39023;DHT22;25908;51.984;5.928;2022-07-23T01:05:15;17.50;91.50
39023;DHT22;25908;51.984;5.928;2022-07-23T01:07:43;17.50;91.50
39023;DHT22;25908;51.984;5.928;2022-07-23T01:10:08;17.50;91.60
39023;DHT22;25908;51.984;5.928;2022-07-23T01:12:54;17.50;91.60
39023;DHT22;25908;51.984;5.928;2022-07-23T01:15:20;17.40;91.60
39023;DHT22;25908;51.984;5.928;2022-07-23T01:17:45;17.40;91.70
39023;DHT22;25908;51.984;5.928;2022-07-23T01:20:11;17.40;91.70
39023;DHT22;25908;51.984;5.928;2022-07-23T01:22:36;17.40;91.70
39023;DHT22;25908;51.984;5.928;2022-07-23T01:25:02;17.30;91.70
39023;DHT22;25908;51.984;5.928;2022-07-23T01:27:28;17.30;91.80
39023;DHT22;25908;51.984;5.928;2022-07-23T01:29:55;17.30;91.80
39023;DHT22;25908;51.984;5.928;2022-07-23T01:32:22;17.30;91.90
39023;DHT22;25908;51.984;5.928;2022-07-23T01:34:47;17.20;91.90
39023;DHT22;25908;51.984;5.928;2022-07-23T01:37:13;17.20;91.90
39023;DHT22;25908;51.984;5.928;2022-07-23T01:39:38;17.20;91.90
39023;DHT22;25908;51.984;5.928;2022-07-23T01:42:05;17.20;91.90
39023;DHT22;25908;51.984;5.928;2022-07-23T01:44:30;17.20;92.00
39023;DHT22;25908;51.984;5.928;2022-07-23T01:46:56;17.10;92.00
39023;DHT22;25908;51.984;5.928;2022-07-23T01:49:22;17.10;92.00
39023;DHT22;25908;51.984;5.928;2022-07-23T01:51:47;17.10;92.10
39023;DHT22;25908;51.984;5.928;2022-07-23T01:54:29;17.10;92.10
39023;DHT22;25908;51.984;5.928;2022-07-23T01:56:55;17.10;92.10
39023;DHT22;25908;51.984;5.928;2022-07-23T01:59:21;17.10;92.10
39023;DHT22;25908;51.984;5.928;2022-07-23T02:01:47;17.00;92.10
39023;DHT22;25908;51.984;5.928;2022-07-23T02:04:12;17.00;92.10
39023;DHT22;25908;51.984;5.928;2022-07-23T02:06:38;17.00;92.10
39023;DHT22;25908;51.984;5.928;2022-07-23T02:09:03;17.00;92.10
39023;DHT22;25908;51.984;5.928;2022-07-23T02:11:29;17.00;92.00
39023;DHT22;25908;51.984;5.928;2022-07-23T02:13:55;16.90;92.00
39023;DHT22;25908;51.984;5.928;2022-07-23T02:16:20;16.90;92.00
39023;DHT22;25908;51.984;5.928;2022-07-23T02:18:46;16.90;92.10
39023;DHT22;25908;51.984;5.928;2022-07-23T02:21:12;16.80;92.00
39023;DHT22;25908;51.984;5.928;2022-07-23T02:23:38;16.80;92.10
39023;DHT22;25908;51.984;5.928;2022-07-23T02:26:03;16.80;92.20
39023;DHT22;25908;51.984;5.928;2022-07-23T02:28:29;16.80;92.20
39023;DHT22;25908;51.984;5.928;2022-07-23T02:30:54;16.80;92.20
39023;DHT22;25908;51.984;5.928;2022-07-23T02:33:20;16.80;92.30
39023;DHT22;25908;51.984;5.928;2022-07-23T02:35:45;16.70;92.40
39023;DHT22;25908;51.984;5.928;2022-07-23T02:38:11;16.70;92.40
39023;DHT22;25908;51.984;5.928;2022-07-23T02:40:37;16.70;92.50
39023;DHT22;25908;51.984;5.928;2022-07-23T02:43:02;16.60;92.50
39023;DHT22;25908;51.984;5.928;2022-07-23T02:45:28;16.60;92.50
39023;DHT22;25908;51.984;5.928;2022-07-23T02:47:53;16.60;92.50
39023;DHT22;25908;51.984;5.928;2022-07-23T02:50:19;16.60;92.60
39023;DHT22;25908;51.984;5.928;2022-07-23T02:52:44;16.60;92.60
39023;DHT22;25908;51.984;5.928;2022-07-23T02:55:10;16.50;92.60
39023;DHT22;25908;51.984;5.928;2022-07-23T02:57:36;16.50;92.60
39023;DHT22;25908;51.984;5.928;2022-07-23T03:00:04;16.50;92.60
39023;DHT22;25908;51.984;5.928;2022-07-23T03:02:30;16.50;92.60
39023;DHT22;25908;51.984;5.928;2022-07-23T03:04:55;16.40;92.60
39023;DHT22;25908;51.984;5.928;2022-07-23T03:07:21;16.50;92.60
39023;DHT22;25908;51.984;5.928;2022-07-23T03:09:46;16.40;92.60
39023;DHT22;25908;51.984;5.928;2022-07-23T03:12:12;16.40;92.70
39023;DHT22;25908;51.984;5.928;2022-07-23T03:14:37;16.40;92.70
39023;DHT22;25908;51.984;5.928;2022-07-23T03:17:03;16.40;92.70
39023;DHT22;25908;51.984;5.928;2022-07-23T03:19:28;16.30;92.70
39023;DHT22;25908;51.984;5.928;2022-07-23T03:21:54;16.40;92.80
39023;DHT22;25908;51.984;5.928;2022-07-23T03:24:19;16.30;92.80
39023;DHT22;25908;51.984;5.928;2022-07-23T03:26:45;16.30;92.80
39023;DHT22;25908;51.984;5.928;2022-07-23T03:29:11;16.30;92.90
39023;DHT22;25908;51.984;5.928;2022-07-23T03:31:37;16.20;93.00
39023;DHT22;25908;51.984;5.928;2022-07-23T03:34:02;16.20;93.10
39023;DHT22;25908;51.984;5.928;2022-07-23T03:36:28;16.20;93.10
39023;DHT22;25908;51.984;5.928;2022-07-23T03:38:53;16.20;93.10
39023;DHT22;25908;51.984;5.928;2022-07-23T03:41:20;16.20;93.10
39023;DHT22;25908;51.984;5.928;2022-07-23T03:43:45;16.10;93.10
39023;DHT22;25908;51.984;5.928;2022-07-23T03:46:11;16.10;93.10
39023;DHT22;25908;51.984;5.928;2022-07-23T03:48:37;16.10;93.20
39023;DHT22;25908;51.984;5.928;2022-07-23T03:51:03;16.10;93.30
39023;DHT22;25908;51.984;5.928;2022-07-23T03:53:28;16.00;93.50
39023;DHT22;25908;51.984;5.928;2022-07-23T03:55:54;16.00;93.30
39023;DHT22;25908;51.984;5.928;2022-07-23T03:58:20;16.00;93.40
39023;DHT22;25908;51.984;5.928;2022-07-23T04:00:45;16.00;93.50
39023;DHT22;25908;51.984;5.928;2022-07-23T04:03:11;16.00;93.50
39023;DHT22;25908;51.984;5.928;2022-07-23T04:05:38;16.00;93.60
39023;DHT22;25908;51.984;5.928;2022-07-23T04:08:04;16.00;93.60
39023;DHT22;25908;51.984;5.928;2022-07-23T04:10:29;16.00;93.60
39023;DHT22;25908;51.984;5.928;2022-07-23T04:12:55;16.00;93.60
39023;DHT22;25908;51.984;5.928;2022-07-23T04:15:20;15.90;93.60
39023;DHT22;25908;51.984;5.928;2022-07-23T04:17:46;15.90;93.70
39023;DHT22;25908;51.984;5.928;2022-07-23T04:20:12;15.90;93.70
39023;DHT22;25908;51.984;5.928;2022-07-23T04:22:38;15.90;93.70
39023;DHT22;25908;51.984;5.928;2022-07-23T04:25:04;15.90;93.60
39023;DHT22;25908;51.984;5.928;2022-07-23T04:27:30;15.90;93.70
39023;DHT22;25908;51.984;5.928;2022-07-23T04:29:58;15.90;93.70
39023;DHT22;25908;51.984;5.928;2022-07-23T04:32:24;15.90;93.80
39023;DHT22;25908;51.984;5.928;2022-07-23T04:34:49;15.90;93.80
39023;DHT22;25908;51.984;5.928;2022-07-23T04:37:15;15.90;93.80
39023;DHT22;25908;51.984;5.928;2022-07-23T04:39:41;15.90;93.90
39023;DHT22;25908;51.984;5.928;2022-07-23T04:42:06;15.90;94.00
39023;DHT22;25908;51.984;5.928;2022-07-23T04:44:32;16.00;94.00
39023;DHT22;25908;51.984;5.928;2022-07-23T04:46:57;16.00;94.00
39023;DHT22;25908;51.984;5.928;2022-07-23T04:49:23;16.00;94.00
39023;DHT22;25908;51.984;5.928;2022-07-23T04:51:48;16.00;94.00
39023;DHT22;25908;51.984;5.928;2022-07-23T04:54:14;16.00;94.00
39023;DHT22;25908;51.984;5.928;2022-07-23T04:56:39;16.00;94.10
39023;DHT22;25908;51.984;5.928;2022-07-23T04:59:05;16.00;94.00
39023;DHT22;25908;51.984;5.928;2022-07-23T05:01:30;16.10;94.00
39023;DHT22;25908;51.984;5.928;2022-07-23T05:03:56;16.10;94.00
39023;DHT22;25908;51.984;5.928;2022-07-23T05:06:21;16.10;94.00
39023;DHT22;25908;51.984;5.928;2022-07-23T05:08:47;16.20;94.00
39023;DHT22;25908;51.984;5.928;2022-07-23T05:11:12;16.20;93.90
39023;DHT22;25908;51.984;5.928;2022-07-23T05:13:38;16.20;93.90
39023;DHT22;25908;51.984;5.928;2022-07-23T05:16:03;16.30;93.80
39023;DHT22;25908;51.984;5.928;2022-07-23T05:18:29;16.30;93.50
39023;DHT22;25908;51.984;5.928;2022-07-23T05:20:55;16.30;93.40
39023;DHT22;25908;51.984;5.928;2022-07-23T05:23:20;16.40;93.50
39023;DHT22;25908;51.984;5.928;2022-07-23T05:25:46;16.40;93.40
39023;DHT22;25908;51.984;5.928;2022-07-23T05:28:11;16.50;93.40
39023;DHT22;25908;51.984;5.928;2022-07-23T05:30:37;16.50;93.30
39023;DHT22;25908;51.984;5.928;2022-07-23T05:33:02;16.50;93.30
39023;DHT22;25908;51.984;5.928;2022-07-23T05:35:28;16.60;93.30
39023;DHT22;25908;51.984;5.928;2022-07-23T05:37:53;16.60;93.40
39023;DHT22;25908;51.984;5.928;2022-07-23T05:40:19;16.70;93.50
39023;DHT22;25908;51.984;5.928;2022-07-23T05:42:45;16.70;93.40
39023;DHT22;25908;51.984;5.928;2022-07-23T05:45:10;16.80;93.00
39023;DHT22;25908;51.984;5.928;2022-07-23T05:47:47;16.90;92.80
39023;DHT22;25908;51.984;5.928;2022-07-23T05:50:13;17.00;92.40
39023;DHT22;25908;51.984;5.928;2022-07-23T05:52:39;17.20;92.00
39023;DHT22;25908;51.984;5.928;2022-07-23T05:55:06;17.40;92.00
39023;DHT22;25908;51.984;5.928;2022-07-23T05:57:32;17.60;91.60
39023;DHT22;25908;51.984;5.928;2022-07-23T05:59:57;17.80;91.30
39023;DHT22;25908;51.984;5.928;2022-07-23T06:02:23;17.90;91.10
39023;DHT22;25908;51.984;5.928;2022-07-23T06:04:48;18.10;90.20
39023;DHT22;25908;51.984;5.928;2022-07-23T06:07:14;18.30;89.20
39023;DHT22;25908;51.984;5.928;2022-07-23T06:09:39;18.50;89.30
39023;DHT22;25908;51.984;5.928;2022-07-23T06:12:05;18.70;88.70
39023;DHT22;25908;51.984;5.928;2022-07-23T06:14:31;18.90;87.80
39023;DHT22;25908;51.984;5.928;2022-07-23T06:16:56;19.00;86.20
39023;DHT22;25908;51.984;5.928;2022-07-23T06:19:22;19.20;85.30
39023;DHT22;25908;51.984;5.928;2022-07-23T06:21:47;19.50;85.70
39023;DHT22;25908;51.984;5.928;2022-07-23T06:24:13;19.60;85.00
39023;DHT22;25908;51.984;5.928;2022-07-23T06:26:39;19.90;84.10
39023;DHT22;25908;51.984;5.928;2022-07-23T06:29:04;20.10;82.90
39023;DHT22;25908;51.984;5.928;2022-07-23T06:31:30;20.30;82.10
39023;DHT22;25908;51.984;5.928;2022-07-23T06:33:55;20.50;81.80
39023;DHT22;25908;51.984;5.928;2022-07-23T06:36:21;20.70;80.30
39023;DHT22;25908;51.984;5.928;2022-07-23T06:38:46;20.80;80.40
39023;DHT22;25908;51.984;5.928;2022-07-23T06:41:12;21.00;79.90
39023;DHT22;25908;51.984;5.928;2022-07-23T06:43:37;21.20;77.60
39023;DHT22;25908;51.984;5.928;2022-07-23T06:46:03;21.30;75.90
39023;DHT22;25908;51.984;5.928;2022-07-23T06:48:29;21.50;76.10
39023;DHT22;25908;51.984;5.928;2022-07-23T06:50:54;21.70;76.50
39023;DHT22;25908;51.984;5.928;2022-07-23T06:53:20;21.80;75.20
39023;DHT22;25908;51.984;5.928;2022-07-23T06:55:46;22.00;75.10
39023;DHT22;25908;51.984;5.928;2022-07-23T06:58:12;22.20;74.90
39023;DHT22;25908;51.984;5.928;2022-07-23T07:00:39;22.40;74.80
39023;DHT22;25908;51.984;5.928;2022-07-23T07:03:05;22.50;73.90
39023;DHT22;25908;51.984;5.928;2022-07-23T07:05:30;22.70;74.00
39023;DHT22;25908;51.984;5.928;2022-07-23T07:07:56;22.80;73.20
39023;DHT22;25908;51.984;5.928;2022-07-23T07:10:22;23.10;71.20
39023;DHT22;25908;51.984;5.928;2022-07-23T07:12:47;23.10;71.00
39023;DHT22;25908;51.984;5.928;2022-07-23T07:15:13;23.20;71.20
39023;DHT22;25908;51.984;5.928;2022-07-23T07:17:39;23.40;70.30
39023;DHT22;25908;51.984;5.928;2022-07-23T07:20:05;23.50;68.00
39023;DHT22;25908;51.984;5.928;2022-07-23T07:22:31;23.60;69.30
39023;DHT22;25908;51.984;5.928;2022-07-23T07:24:57;23.80;68.30
39023;DHT22;25908;51.984;5.928;2022-07-23T07:27:22;24.00;67.80
39023;DHT22;25908;51.984;5.928;2022-07-23T07:29:48;24.20;66.90
39023;DHT22;25908;51.984;5.928;2022-07-23T07:32:13;24.40;66.20
39023;DHT22;25908;51.984;5.928;2022-07-23T07:34:39;24.50;65.60
39023;DHT22;25908;51.984;5.928;2022-07-23T07:37:05;24.60;65.40
39023;DHT22;25908;51.984;5.928;2022-07-23T07:39:30;24.80;64.00
39023;DHT22;25908;51.984;5.928;2022-07-23T07:41:56;24.90;64.20
39023;DHT22;25908;51.984;5.928;2022-07-23T07:44:23;25.10;63.10
39023;DHT22;25908;51.984;5.928;2022-07-23T07:46:48;25.20;63.30
39023;DHT22;25908;51.984;5.928;2022-07-23T07:49:14;25.30;62.70
39023;DHT22;25908;51.984;5.928;2022-07-23T07:51:39;25.40;60.90
39023;DHT22;25908;51.984;5.928;2022-07-23T07:54:05;25.50;61.40
39023;DHT22;25908;51.984;5.928;2022-07-23T07:56:30;25.80;61.40
39023;DHT22;25908;51.984;5.928;2022-07-23T07:58:56;26.00;60.70
39023;DHT22;25908;51.984;5.928;2022-07-23T08:01:21;26.20;60.10
39023;DHT22;25908;51.984;5.928;2022-07-23T08:03:47;26.30;57.50
39023;DHT22;25908;51.984;5.928;2022-07-23T08:06:13;26.30;59.10
39023;DHT22;25908;51.984;5.928;2022-07-23T08:08:38;26.40;58.90
39023;DHT22;25908;51.984;5.928;2022-07-23T08:11:04;26.40;58.80
39023;DHT22;25908;51.984;5.928;2022-07-23T08:13:29;26.50;59.10
39023;DHT22;25908;51.984;5.928;2022-07-23T08:15:55;26.60;59.00
39023;DHT22;25908;51.984;5.928;2022-07-23T08:18:20;26.60;57.40
39023;DHT22;25908;51.984;5.928;2022-07-23T08:20:46;26.60;58.40
39023;DHT22;25908;51.984;5.928;2022-07-23T08:23:12;26.70;59.30
39023;DHT22;25908;51.984;5.928;2022-07-23T08:25:41;26.80;58.50
39023;DHT22;25908;51.984;5.928;2022-07-23T08:28:08;26.90;57.60
39023;DHT22;25908;51.984;5.928;2022-07-23T08:30:35;27.10;57.80
39023;DHT22;25908;51.984;5.928;2022-07-23T08:33:03;27.20;57.20
39023;DHT22;25908;51.984;5.928;2022-07-23T08:35:37;27.20;57.20
39023;DHT22;25908;51.984;5.928;2022-07-23T08:38:06;27.20;57.20
39023;DHT22;25908;51.984;5.928;2022-07-23T08:40:34;27.40;55.80
39023;DHT22;25908;51.984;5.928;2022-07-23T08:43:00;27.60;55.80
39023;DHT22;25908;51.984;5.928;2022-07-23T08:45:28;27.80;55.10
39023;DHT22;25908;51.984;5.928;2022-07-23T08:47:56;27.90;55.00
39023;DHT22;25908;51.984;5.928;2022-07-23T08:50:23;27.90;53.50
39023;DHT22;25908;51.984;5.928;2022-07-23T08:52:50;27.90;53.70
39023;DHT22;25908;51.984;5.928;2022-07-23T08:55:17;27.90;53.50
39023;DHT22;25908;51.984;5.928;2022-07-23T08:57:43;27.90;52.70
39023;DHT22;25908;51.984;5.928;2022-07-23T09:00:10;27.90;54.10
39023;DHT22;25908;51.984;5.928;2022-07-23T09:02:40;27.90;53.30
39023;DHT22;25908;51.984;5.928;2022-07-23T09:05:06;28.10;53.50
39023;DHT22;25908;51.984;5.928;2022-07-23T09:07:32;28.30;52.50
39023;DHT22;25908;51.984;5.928;2022-07-23T09:10:09;28.40;54.20
39023;DHT22;25908;51.984;5.928;2022-07-23T09:12:35;28.60;52.40
39023;DHT22;25908;51.984;5.928;2022-07-23T09:15:07;28.70;51.00
39023;DHT22;25908;51.984;5.928;2022-07-23T09:17:42;28.80;51.60
39023;DHT22;25908;51.984;5.928;2022-07-23T09:20:10;28.90;52.70
39023;DHT22;25908;51.984;5.928;2022-07-23T09:22:36;29.00;51.80
39023;DHT22;25908;51.984;5.928;2022-07-23T09:25:03;29.10;51.10
39023;DHT22;25908;51.984;5.928;2022-07-23T09:27:47;29.00;51.30
39023;DHT22;25908;51.984;5.928;2022-07-23T09:30:13;28.90;51.70
39023;DHT22;25908;51.984;5.928;2022-07-23T09:32:42;28.80;50.10
39023;DHT22;25908;51.984;5.928;2022-07-23T09:35:07;28.60;52.30
39023;DHT22;25908;51.984;5.928;2022-07-23T09:37:34;28.40;52.70
39023;DHT22;25908;51.984;5.928;2022-07-23T09:40:08;28.40;51.70
39023;DHT22;25908;51.984;5.928;2022-07-23T09:42:34;28.30;51.30
39023;DHT22;25908;51.984;5.928;2022-07-23T09:45:00;28.10;52.70
39023;DHT22;25908;51.984;5.928;2022-07-23T09:47:29;28.10;53.10
39023;DHT22;25908;51.984;5.928;2022-07-23T09:50:03;28.20;51.90
39023;DHT22;25908;51.984;5.928;2022-07-23T09:52:52;28.10;51.50
39023;DHT22;25908;51.984;5.928;2022-07-23T09:55:18;28.20;53.00
39023;DHT22;25908;51.984;5.928;2022-07-23T09:57:45;28.30;51.20
39023;DHT22;25908;51.984;5.928;2022-07-23T10:00:12;28.30;51.50
39023;DHT22;25908;51.984;5.928;2022-07-23T10:02:39;28.40;52.30
39023;DHT22;25908;51.984;5.928;2022-07-23T10:05:06;28.50;52.10
39023;DHT22;25908;51.984;5.928;2022-07-23T10:07:34;28.60;51.90
39023;DHT22;25908;51.984;5.928;2022-07-23T10:10:00;28.70;51.50
39023;DHT22;25908;51.984;5.928;2022-07-23T10:12:26;28.80;50.40
39023;DHT22;25908;51.984;5.928;2022-07-23T10:15:05;28.80;50.40
39023;DHT22;25908;51.984;5.928;2022-07-23T10:17:32;28.80;51.00
39023;DHT22;25908;51.984;5.928;2022-07-23T10:19:57;28.80;51.50
39023;DHT22;25908;51.984;5.928;2022-07-23T10:22:29;28.90;51.90
39023;DHT22;25908;51.984;5.928;2022-07-23T10:30:54;28.80;48.80
39023;DHT22;25908;51.984;5.928;2022-07-23T10:33:30;28.70;48.70
39023;DHT22;25908;51.984;5.928;2022-07-23T10:36:20;28.70;50.50
39023;DHT22;25908;51.984;5.928;2022-07-23T10:38:58;28.80;50.60
39023;DHT22;25908;51.984;5.928;2022-07-23T10:41:38;28.80;49.30
39023;DHT22;25908;51.984;5.928;2022-07-23T10:44:18;28.90;47.90
39023;DHT22;25908;51.984;5.928;2022-07-23T10:46:58;28.80;48.80
39023;DHT22;25908;51.984;5.928;2022-07-23T10:49:43;28.70;49.50
39023;DHT22;25908;51.984;5.928;2022-07-23T10:52:16;28.70;50.50
39023;DHT22;25908;51.984;5.928;2022-07-23T10:54:49;28.80;50.50
39023;DHT22;25908;51.984;5.928;2022-07-23T10:57:17;28.80;50.10
39023;DHT22;25908;51.984;5.928;2022-07-23T11:02:32;28.80;50.60
39023;DHT22;25908;51.984;5.928;2022-07-23T11:05:04;28.80;50.30
39023;DHT22;25908;51.984;5.928;2022-07-23T11:07:29;28.80;50.00
39023;DHT22;25908;51.984;5.928;2022-07-23T11:09:55;28.80;49.90
39023;DHT22;25908;51.984;5.928;2022-07-23T11:15:12;28.70;48.70
39023;DHT22;25908;51.984;5.928;2022-07-23T11:17:58;28.60;49.10
39023;DHT22;25908;51.984;5.928;2022-07-23T11:20:27;28.60;49.80
39023;DHT22;25908;51.984;5.928;2022-07-23T11:22:58;28.70;49.80
39023;DHT22;25908;51.984;5.928;2022-07-23T11:35:37;28.20;50.40
39023;DHT22;25908;51.984;5.928;2022-07-23T11:40:29;28.40;50.50
39023;DHT22;25908;51.984;5.928;2022-07-23T11:42:57;28.40;51.20
39023;DHT22;25908;51.984;5.928;2022-07-23T11:45:30;28.40;51.40
39023;DHT22;25908;51.984;5.928;2022-07-23T11:47:56;28.50;51.40
39023;DHT22;25908;51.984;5.928;2022-07-23T11:50:24;28.50;52.20
39023;DHT22;25908;51.984;5.928;2022-07-23T11:52:51;28.50;50.00
39023;DHT22;25908;51.984;5.928;2022-07-23T11:55:17;28.10;50.50
39023;DHT22;25908;51.984;5.928;2022-07-23T11:57:43;27.90;51.10
39023;DHT22;25908;51.984;5.928;2022-07-23T12:02:38;27.80;50.90
39023;DHT22;25908;51.984;5.928;2022-07-23T12:05:04;27.70;50.20
39023;DHT22;25908;51.984;5.928;2022-07-23T12:07:41;27.60;50.00
39023;DHT22;25908;51.984;5.928;2022-07-23T12:10:15;27.60;51.50
39023;DHT22;25908;51.984;5.928;2022-07-23T12:15:10;27.50;51.80
39023;DHT22;25908;51.984;5.928;2022-07-23T12:17:38;27.50;51.80
39023;DHT22;25908;51.984;5.928;2022-07-23T12:20:05;27.50;51.80
39023;DHT22;25908;51.984;5.928;2022-07-23T12:25:09;27.70;52.40
39023;DHT22;25908;51.984;5.928;2022-07-23T12:27:35;27.70;51.00
39023;DHT22;25908;51.984;5.928;2022-07-23T12:30:23;27.70;52.30
39023;DHT22;25908;51.984;5.928;2022-07-23T12:32:53;27.70;51.60
39023;DHT22;25908;51.984;5.928;2022-07-23T12:35:19;27.70;52.20
39023;DHT22;25908;51.984;5.928;2022-07-23T12:37:46;27.70;51.90
39023;DHT22;25908;51.984;5.928;2022-07-23T12:43:11;27.60;52.40
39023;DHT22;25908;51.984;5.928;2022-07-23T12:46:01;27.60;52.10
39023;DHT22;25908;51.984;5.928;2022-07-23T12:48:29;27.60;51.30
39023;DHT22;25908;51.984;5.928;2022-07-23T12:51:35;27.50;49.80
39023;DHT22;25908;51.984;5.928;2022-07-23T12:53:57;27.40;51.20
39023;DHT22;25908;51.984;5.928;2022-07-23T12:56:31;27.40;51.60
39023;DHT22;25908;51.984;5.928;2022-07-23T12:59:05;27.30;51.90
39023;DHT22;25908;51.984;5.928;2022-07-23T13:01:37;27.30;53.00
39023;DHT22;25908;51.984;5.928;2022-07-23T13:04:06;27.30;53.20
39023;DHT22;25908;51.984;5.928;2022-07-23T13:06:37;27.30;51.40
39023;DHT22;25908;51.984;5.928;2022-07-23T13:09:06;27.20;52.00
39023;DHT22;25908;51.984;5.928;2022-07-23T13:11:33;27.10;52.60
39023;DHT22;25908;51.984;5.928;2022-07-23T13:13:59;27.00;52.80
39023;DHT22;25908;51.984;5.928;2022-07-23T13:16:29;26.90;53.80
39023;DHT22;25908;51.984;5.928;2022-07-23T13:18:56;26.90;55.00
39023;DHT22;25908;51.984;5.928;2022-07-23T13:21:25;26.80;55.00
39023;DHT22;25908;51.984;5.928;2022-07-23T13:23:51;26.80;54.40
39023;DHT22;25908;51.984;5.928;2022-07-23T13:26:16;26.70;54.80
39023;DHT22;25908;51.984;5.928;2022-07-23T13:28:42;26.70;54.30
39023;DHT22;25908;51.984;5.928;2022-07-23T13:31:08;26.70;53.10
39023;DHT22;25908;51.984;5.928;2022-07-23T13:33:33;26.80;53.80
39023;DHT22;25908;51.984;5.928;2022-07-23T13:35:59;26.70;53.10
39023;DHT22;25908;51.984;5.928;2022-07-23T13:38:25;26.70;52.70
39023;DHT22;25908;51.984;5.928;2022-07-23T13:40:52;26.70;52.70
39023;DHT22;25908;51.984;5.928;2022-07-23T13:43:20;26.70;53.20
39023;DHT22;25908;51.984;5.928;2022-07-23T13:45:46;26.70;53.80
39023;DHT22;25908;51.984;5.928;2022-07-23T13:48:13;26.70;53.30
39023;DHT22;25908;51.984;5.928;2022-07-23T13:50:40;26.70;53.00
39023;DHT22;25908;51.984;5.928;2022-07-23T13:53:08;26.80;52.80
39023;DHT22;25908;51.984;5.928;2022-07-23T13:55:35;26.70;54.30
39023;DHT22;25908;51.984;5.928;2022-07-23T13:58:02;26.70;53.40
39023;DHT22;25908;51.984;5.928;2022-07-23T14:00:28;26.70;54.00
39023;DHT22;25908;51.984;5.928;2022-07-23T14:02:56;26.70;54.50
39023;DHT22;25908;51.984;5.928;2022-07-23T14:05:22;26.70;54.60
39023;DHT22;25908;51.984;5.928;2022-07-23T14:07:47;26.70;54.60
39023;DHT22;25908;51.984;5.928;2022-07-23T14:10:16;26.70;54.50
39023;DHT22;25908;51.984;5.928;2022-07-23T14:12:43;26.80;54.60
39023;DHT22;25908;51.984;5.928;2022-07-23T14:15:08;26.80;54.60
39023;DHT22;25908;51.984;5.928;2022-07-23T14:17:36;26.80;55.00
39023;DHT22;25908;51.984;5.928;2022-07-23T14:20:03;26.80;55.60
39023;DHT22;25908;51.984;5.928;2022-07-23T14:22:29;26.80;55.60
39023;DHT22;25908;51.984;5.928;2022-07-23T14:24:54;26.80;55.10
39023;DHT22;25908;51.984;5.928;2022-07-23T14:27:22;26.70;54.40
39023;DHT22;25908;51.984;5.928;2022-07-23T14:29:48;26.60;55.10
39023;DHT22;25908;51.984;5.928;2022-07-23T14:32:13;26.60;54.20
39023;DHT22;25908;51.984;5.928;2022-07-23T14:34:39;26.50;54.80
39023;DHT22;25908;51.984;5.928;2022-07-23T14:37:05;26.50;56.00
39023;DHT22;25908;51.984;5.928;2022-07-23T14:39:30;26.50;55.30
39023;DHT22;25908;51.984;5.928;2022-07-23T14:41:56;26.50;55.70
39023;DHT22;25908;51.984;5.928;2022-07-23T14:44:21;26.50;56.40
39023;DHT22;25908;51.984;5.928;2022-07-23T14:46:48;26.60;56.30
39023;DHT22;25908;51.984;5.928;2022-07-23T14:49:14;26.60;54.70
39023;DHT22;25908;51.984;5.928;2022-07-23T14:51:39;26.60;55.20
39023;DHT22;25908;51.984;5.928;2022-07-23T14:54:07;26.70;55.40
39023;DHT22;25908;51.984;5.928;2022-07-23T14:56:33;26.70;54.60
39023;DHT22;25908;51.984;5.928;2022-07-23T14:58:59;26.70;54.90
39023;DHT22;25908;51.984;5.928;2022-07-23T15:01:24;26.70;55.60
39023;DHT22;25908;51.984;5.928;2022-07-23T15:03:50;26.70;56.00
39023;DHT22;25908;51.984;5.928;2022-07-23T15:06:16;26.80;55.40
39023;DHT22;25908;51.984;5.928;2022-07-23T15:08:42;26.70;54.50
39023;DHT22;25908;51.984;5.928;2022-07-23T15:11:08;26.70;54.30
39023;DHT22;25908;51.984;5.928;2022-07-23T15:13:35;26.60;54.50
39023;DHT22;25908;51.984;5.928;2022-07-23T15:16:01;26.60;54.00
39023;DHT22;25908;51.984;5.928;2022-07-23T15:18:27;26.50;53.60
39023;DHT22;25908;51.984;5.928;2022-07-23T15:20:53;26.50;55.00
39023;DHT22;25908;51.984;5.928;2022-07-23T15:23:19;26.50;54.60
39023;DHT22;25908;51.984;5.928;2022-07-23T15:25:44;26.40;54.60
39023;DHT22;25908;51.984;5.928;2022-07-23T15:28:10;26.40;55.10
39023;DHT22;25908;51.984;5.928;2022-07-23T15:30:35;26.30;53.80
39023;DHT22;25908;51.984;5.928;2022-07-23T15:33:01;26.20;53.30
39023;DHT22;25908;51.984;5.928;2022-07-23T15:35:26;26.20;53.20
39023;DHT22;25908;51.984;5.928;2022-07-23T15:37:52;26.20;53.40
39023;DHT22;25908;51.984;5.928;2022-07-23T15:40:18;26.10;55.00
39023;DHT22;25908;51.984;5.928;2022-07-23T15:42:43;26.00;54.70
39023;DHT22;25908;51.984;5.928;2022-07-23T15:45:09;26.00;55.20
39023;DHT22;25908;51.984;5.928;2022-07-23T15:47:34;25.90;55.10
39023;DHT22;25908;51.984;5.928;2022-07-23T15:50:00;25.90;56.30
39023;DHT22;25908;51.984;5.928;2022-07-23T15:52:25;26.00;56.60
39023;DHT22;25908;51.984;5.928;2022-07-23T15:54:51;26.00;56.40
39023;DHT22;25908;51.984;5.928;2022-07-23T15:57:17;26.00;55.60
39023;DHT22;25908;51.984;5.928;2022-07-23T15:59:42;26.10;55.10
39023;DHT22;25908;51.984;5.928;2022-07-23T16:02:09;26.00;55.40
39023;DHT22;25908;51.984;5.928;2022-07-23T16:04:35;26.00;55.90